Time;durP1;ratioP1;P1;durP2;ratioP2;P2;SDS_P1;SDS_P2;PMS_P1;PMS_P2;Temp;Humidity;BMP_temperature;BMP_pressure;BME280_temperature;BME280_humidity;BME280_pressure;Samples;Min_cycle;Max_cycle;Signal;HPM_P1;HPM_P2
2023/10/17 00:02:10;;;;;;;62.80;58.75;;;7.60;99.90;;;;;;6254296;22;20007;-91
2023/10/17 00:04:38;;;;;;;62.97;58.33;;;7.30;99.90;;;;;;6255254;22;20025;-93
2023/10/17 00:07:03;;;;;;;45.13;41.78;;;6.70;99.90;;;;;;6255668;22;20011;-93
2023/10/17 00:09:36;;;;;;;54.65;51.10;;;5.90;99.90;;;;;;6254112;22;20532;-94
2023/10/17 00:12:45;;;;;;;46.22;43.13;;;7.30;99.90;;;;;;6255765;22;20338;-93
2023/10/17 00:17:17;;;;;;;39.92;37.42;;;7.00;99.90;;;;;;6279670;22;20015;-94
2023/10/17 00:19:44;;;;;;;51.67;48.53;;;6.70;99.90;;;;;;6254612;22;20011;-92
2023/10/17 00:22:16;;;;;;;45.88;42.47;;;6.40;99.90;;;;;;6254170;22;20061;-93
2023/10/17 00:24:46;;;;;;;42.05;38.63;;;7.60;99.90;;;;;;6255213;22;20116;-93
2023/10/17 00:27:11;;;;;;;41.15;38.45;;;6.80;99.90;;;;;;6255873;22;20015;-92
2023/10/17 00:29:37;;;;;;;42.38;39.17;;;6.10;99.90;;;;;;6255046;22;20022;-92
2023/10/17 00:32:03;;;;;;;43.80;40.65;;;6.40;99.90;;;;;;6254305;22;20072;-92
2023/10/17 00:34:28;;;;;;;41.85;38.95;;;6.10;99.90;;;;;;6254596;22;20042;-92
2023/10/17 00:37:03;;;;;;;45.83;42.72;;;7.00;99.90;;;;;;6254649;22;20019;-92
2023/10/17 00:39:29;;;;;;;40.72;38.13;;;6.00;99.90;;;;;;6280859;22;20058;-92
2023/10/17 00:44:38;;;;;;;43.50;40.75;;;5.90;99.90;;;;;;6280545;22;20064;-93
2023/10/17 00:47:06;;;;;;;44.08;41.33;;;5.90;99.90;;;;;;6255193;22;20072;-93
2023/10/17 00:49:42;;;;;;;37.63;35.08;;;5.80;99.90;;;;;;6254845;22;20011;-92
2023/10/17 00:52:18;;;;;;;45.42;41.95;;;5.90;99.90;;;;;;6254514;22;20018;-93
2023/10/17 00:54:49;;;;;;;39.75;36.55;;;5.90;99.90;;;;;;6255513;22;20022;-94
2023/10/17 00:57:15;;;;;;;44.67;41.42;;;5.90;99.90;;;;;;6254664;22;20046;-92
2023/10/17 00:59:50;;;;;;;55.53;51.80;;;5.90;99.90;;;;;;6253760;22;20297;-93
2023/10/17 01:02:16;;;;;;;39.25;36.30;;;6.00;99.90;;;;;;6255021;22;20078;-93
2023/10/17 01:04:44;;;;;;;37.88;35.13;;;6.10;99.90;;;;;;6257456;22;20086;-93
2023/10/17 01:07:12;;;;;;;32.22;29.90;;;6.10;99.90;;;;;;6256803;22;20532;-92
2023/10/17 01:09:38;;;;;;;36.20;33.30;;;7.10;99.90;;;;;;6257323;22;20011;-92
2023/10/17 01:12:10;;;;;;;41.35;38.70;;;6.20;99.90;;;;;;6257772;22;20216;-93
2023/10/17 01:14:36;;;;;;;35.08;32.22;;;6.20;99.90;;;;;;6260785;22;20011;-94
2023/10/17 01:17:07;;;;;;;50.78;47.40;;;6.20;99.90;;;;;;6262197;22;20015;-93
2023/10/17 01:19:33;;;;;;;35.47;32.85;;;6.20;99.90;;;;;;6264484;22;20015;-91
2023/10/17 01:22:00;;;;;;;42.30;39.08;;;6.90;99.90;;;;;;6266224;22;20046;-93
2023/10/17 01:24:26;;;;;;;40.85;38.20;;;6.60;99.90;;;;;;6265793;22;20046;-94
2023/10/17 01:26:53;;;;;;;49.17;45.95;;;6.20;99.90;;;;;;6265582;22;20011;-92
2023/10/17 01:29:21;;;;;;;45.58;42.50;;;7.10;99.90;;;;;;6257371;22;20054;-93
2023/10/17 01:31:48;;;;;;;47.30;44.10;;;6.50;99.90;;;;;;6256134;22;20067;-93
2023/10/17 01:34:14;;;;;;;63.22;59.28;;;6.50;99.90;;;;;;6256956;22;20019;-92
2023/10/17 01:36:43;;;;;;;50.70;47.35;;;7.20;99.90;;;;;;6255296;22;20050;-93
2023/10/17 01:39:09;;;;;;;37.22;34.38;;;7.60;99.90;;;;;;6256144;22;20266;-93
2023/10/17 01:41:35;;;;;;;45.90;42.83;;;7.00;99.90;;;;;;6255652;22;20011;-93
2023/10/17 01:44:02;;;;;;;51.25;47.70;;;6.40;99.90;;;;;;6255145;22;20011;-93
2023/10/17 01:46:31;;;;;;;52.45;49.08;;;7.40;99.90;;;;;;6255626;22;20047;-93
2023/10/17 01:49:00;;;;;;;58.63;54.70;;;6.50;99.90;;;;;;6255471;22;20004;-93
2023/10/17 01:51:27;;;;;;;51.60;47.90;;;6.80;99.90;;;;;;6255263;22;20023;-93
2023/10/17 01:53:53;;;;;;;53.08;49.45;;;7.60;99.90;;;;;;6255568;22;20012;-93
2023/10/17 01:56:29;;;;;;;47.25;44.10;;;6.40;99.90;;;;;;6255941;22;20017;-92
2023/10/17 01:58:55;;;;;;;39.78;37.13;;;6.40;99.90;;;;;;6256006;22;20015;-94
2023/10/17 02:01:26;;;;;;;49.45;46.05;;;6.40;99.90;;;;;;6256024;22;20011;-92
2023/10/17 02:04:03;;;;;;;48.30;44.30;;;7.50;99.90;;;;;;6255006;22;20004;-93
2023/10/17 02:06:35;;;;;;;40.67;37.88;;;6.80;99.90;;;;;;6256470;22;20011;-92
2023/10/17 02:09:05;;;;;;;41.25;38.47;;;6.30;99.90;;;;;;6254588;22;20014;-93
2023/10/17 02:11:40;;;;;;;40.95;38.03;;;6.60;99.90;;;;;;6255368;22;20007;-93
2023/10/17 02:14:08;;;;;;;32.72;29.88;;;6.20;99.90;;;;;;6254581;22;20011;-92
2023/10/17 02:16:35;;;;;;;38.50;35.85;;;6.20;99.90;;;;;;6255104;22;20015;-93
2023/10/17 02:19:06;;;;;;;36.85;34.35;;;6.10;99.90;;;;;;6255741;22;20011;-93
2023/10/17 02:21:31;;;;;;;39.60;36.95;;;7.30;99.90;;;;;;6254696;22;20012;-92
2023/10/17 02:24:01;;;;;;;34.42;31.58;;;7.00;99.90;;;;;;6255336;22;20014;-92
2023/10/17 02:26:28;;;;;;;42.42;39.40;;;6.00;99.90;;;;;;6255684;22;20053;-92
2023/10/17 02:28:59;;;;;;;57.65;53.85;;;6.30;99.90;;;;;;6254918;22;20011;-92
2023/10/17 02:31:32;;;;;;;35.13;31.95;;;7.10;99.90;;;;;;6255569;22;20069;-93
2023/10/17 02:33:58;;;;;;;31.65;29.05;;;7.00;99.90;;;;;;6255212;22;20484;-93
2023/10/17 02:36:25;;;;;;;30.33;28.02;;;5.90;99.90;;;;;;6254786;22;20019;-94
2023/10/17 02:38:51;;;;;;;41.92;38.83;;;6.20;99.90;;;;;;6255275;22;20055;-92
2023/10/17 02:41:19;;;;;;;34.33;31.77;;;5.60;99.90;;;;;;6254685;22;20065;-93
2023/10/17 02:43:55;;;;;;;30.35;27.75;;;5.50;99.90;;;;;;6254411;22;20503;-92
2023/10/17 02:46:33;;;;;;;46.50;43.25;;;5.50;99.90;;;;;;6255235;22;20477;-93
2023/10/17 02:49:00;;;;;;;30.00;27.52;;;5.90;99.90;;;;;;6255813;22;20046;-93
2023/10/17 02:53:53;;;;;;;30.08;27.73;;;6.50;99.90;;;;;;6281452;22;20105;-92
2023/10/17 02:56:28;;;;;;;30.30;28.08;;;6.50;99.90;;;;;;6255031;22;20011;-93
2023/10/17 02:59:12;;;;;;;38.65;36.00;;;5.30;99.90;;;;;;6256129;22;20015;-93
2023/10/17 03:01:42;;;;;;;29.38;27.27;;;6.30;99.90;;;;;;6255217;22;20018;-94
2023/10/17 03:04:12;;;;;;;29.52;27.35;;;5.10;99.90;;;;;;6255562;22;20004;-92
2023/10/17 03:06:43;;;;;;;30.90;28.73;;;5.10;99.90;;;;;;6255396;22;20368;-93
2023/10/17 03:14:25;;;;;;;24.65;22.63;;;5.00;99.90;;;;;;6280787;22;20021;-94
2023/10/17 03:16:54;;;;;;;27.63;25.08;;;6.10;99.90;;;;;;6255443;22;20011;-93
2023/10/17 03:19:28;;;;;;;35.78;32.97;;;5.50;99.90;;;;;;6255670;22;20054;-93
2023/10/17 03:21:55;;;;;;;22.55;20.75;;;5.30;99.90;;;;;;6255413;22;20011;-94
2023/10/17 03:24:39;;;;;;;23.88;21.67;;;4.90;99.90;;;;;;6253940;22;20012;-92
2023/10/17 03:27:07;;;;;;;30.58;28.50;;;4.80;99.90;;;;;;6255136;22;20018;-93
2023/10/17 03:29:36;;;;;;;26.92;25.02;;;6.10;99.90;;;;;;6255066;22;20011;-93
2023/10/17 03:32:04;;;;;;;27.17;24.98;;;4.80;99.90;;;;;;6254868;22;20011;-93
2023/10/17 03:34:35;;;;;;;29.75;27.60;;;4.70;99.90;;;;;;6255119;22;20011;-93
2023/10/17 03:40:14;;;;;;;39.70;36.70;;;6.00;99.90;;;;;;6280469;22;20037;-94
2023/10/17 03:45:23;;;;;;;30.38;28.25;;;5.70;99.90;;;;;;6280649;22;20372;-92
2023/10/17 03:47:53;;;;;;;26.73;24.42;;;4.70;99.90;;;;;;6255381;22;20007;-92
2023/10/17 03:50:34;;;;;;;25.23;23.15;;;4.60;99.90;;;;;;6255565;22;20022;-92
2023/10/17 03:53:07;;;;;;;27.48;25.27;;;4.60;99.90;;;;;;6255317;22;20103;-92
2023/10/17 03:55:35;;;;;;;27.13;25.17;;;4.60;99.90;;;;;;6253799;22;20100;-93
2023/10/17 03:58:08;;;;;;;38.05;35.22;;;4.50;99.90;;;;;;6258464;22;20026;-91
2023/10/17 04:00:41;;;;;;;21.90;19.90;;;4.60;99.90;;;;;;6257191;22;20178;-91
2023/10/17 04:03:13;;;;;;;31.90;29.20;;;4.60;99.90;;;;;;6257349;22;20464;-93
2023/10/17 04:05:39;;;;;;;31.25;29.05;;;4.50;99.90;;;;;;6255236;22;20157;-92
2023/10/17 04:08:05;;;;;;;31.33;29.02;;;4.50;99.90;;;;;;6254656;22;20503;-93
2023/10/17 04:10:49;;;;;;;29.55;26.50;;;4.50;99.90;;;;;;6255535;22;20019;-92
2023/10/17 04:13:34;;;;;;;25.90;23.67;;;4.50;99.90;;;;;;6255352;22;20015;-95
2023/10/17 04:16:08;;;;;;;25.45;23.25;;;4.50;99.90;;;;;;6256071;22;20037;-93
2023/10/17 04:18:37;;;;;;;40.40;37.25;;;4.60;99.90;;;;;;6254850;22;20034;-92
2023/10/17 04:24:05;;;;;;;40.88;37.25;;;4.60;99.90;;;;;;6256054;22;20015;-91
2023/10/17 04:26:43;;;;;;;35.03;31.38;;;4.60;99.90;;;;;;6254885;22;20015;-91
2023/10/17 04:29:29;;;;;;;44.70;40.47;;;4.70;99.90;;;;;;6254795;22;20094;-94
2023/10/17 04:31:55;;;;;;;32.47;28.50;;;5.40;99.90;;;;;;6254491;22;20012;-92
2023/10/17 04:34:26;;;;;;;42.95;39.30;;;4.80;99.90;;;;;;6254503;22;20003;-92
2023/10/17 04:36:53;;;;;;;38.80;35.28;;;4.80;99.90;;;;;;6250409;22;20070;-92
2023/10/17 04:39:25;;;;;;;30.63;28.08;;;4.80;99.90;;;;;;6250722;22;20011;-91
2023/10/17 04:44:21;;;;;;;35.20;32.28;;;5.90;99.90;;;;;;6277464;22;20016;-92
2023/10/17 04:49:35;;;;;;;48.15;45.00;;;3.90;99.90;;;;;;6277625;22;20031;-92
2023/10/17 04:57:03;;;;;;;33.05;30.40;;;5.30;99.90;;;;;;6277775;22;20035;-92
2023/10/17 06:18:32;;;;;;;54.83;50.85;;;6.40;99.90;;;;;;6296039;22;20020;-91
2023/10/17 06:21:18;;;;;;;61.17;56.50;;;7.20;99.90;;;;;;6271209;22;20008;-91
2023/10/17 06:34:35;;;;;;;44.13;40.67;;;7.40;99.90;;;;;;6295943;22;20012;-90
2023/10/17 06:37:01;;;;;;;64.75;60.20;;;6.70;99.90;;;;;;6269865;22;20051;-90
2023/10/17 06:39:36;;;;;;;48.05;44.35;;;7.80;99.90;;;;;;6269262;22;20019;-89
2023/10/17 06:42:49;;;;;;;58.92;54.92;;;7.60;99.90;;;;;;6269709;22;20012;-89
2023/10/17 06:45:01;;;;;;;63.67;59.38;;;7.50;99.90;;;;;;6282913;22;20030;-91
2023/10/17 06:47:40;;;;;;;55.43;51.50;;;8.10;99.90;;;;;;6269454;22;20012;-90
2023/10/17 06:55:21;;;;;;;49.13;45.58;;;7.10;99.90;;;;;;6295519;22;20043;-90
2023/10/17 06:57:55;;;;;;;48.63;44.92;;;7.20;99.90;;;;;;6270965;22;20069;-89
2023/10/17 07:00:27;;;;;;;58.47;54.20;;;7.60;99.90;;;;;;6268662;22;20022;-90
2023/10/17 07:02:56;;;;;;;66.45;61.53;;;7.20;99.90;;;;;;6268861;22;20059;-89
2023/10/17 07:05:26;;;;;;;57.67;53.47;;;7.30;99.90;;;;;;6269767;22;20039;-90
2023/10/17 07:07:52;;;;;;;60.60;56.20;;;8.40;99.90;;;;;;6270536;22;20207;-90
2023/10/17 07:10:38;;;;;;;57.53;53.42;;;7.90;99.90;;;;;;6270233;22;20061;-90
2023/10/17 07:13:42;;;;;;;56.95;52.88;;;8.50;99.90;;;;;;6271108;22;20015;-88
2023/10/17 07:16:11;;;;;;;52.67;48.97;;;7.70;99.90;;;;;;6270860;22;20039;-90
2023/10/17 07:18:47;;;;;;;64.50;59.83;;;7.60;99.90;;;;;;6270466;22;20023;-90
2023/10/17 07:23:41;;;;;;;55.88;51.58;;;8.30;99.90;;;;;;6296430;22;20016;-91
2023/10/17 07:26:11;;;;;;;56.85;52.70;;;7.80;99.90;;;;;;6270539;22;20023;-91
2023/10/17 07:28:42;;;;;;;53.95;50.00;;;8.60;99.90;;;;;;6270963;22;20067;-90
2023/10/17 07:31:12;;;;;;;58.55;54.10;;;8.00;99.90;;;;;;6270959;22;20004;-91
2023/10/17 07:33:42;;;;;;;56.83;53.15;;;8.00;99.90;;;;;;6271197;22;20069;-91
2023/10/17 07:36:13;;;;;;;76.97;71.70;;;8.10;99.90;;;;;;6276092;22;20019;-91
2023/10/17 07:38:41;;;;;;;66.38;61.72;;;8.20;99.90;;;;;;6275791;22;20030;-90
2023/10/17 07:41:13;;;;;;;62.53;57.95;;;8.90;99.90;;;;;;6276394;22;20015;-89
2023/10/17 07:43:46;;;;;;;62.00;57.22;;;8.40;99.90;;;;;;6275921;22;20041;-89
2023/10/17 07:46:18;;;;;;;59.07;54.90;;;8.30;99.90;;;;;;6276246;22;20011;-88
2023/10/17 07:48:50;;;;;;;65.38;60.97;;;9.50;99.90;;;;;;6276405;22;20034;-90
2023/10/17 07:51:16;;;;;;;61.58;57.17;;;8.60;99.90;;;;;;6276592;22;20019;-91
2023/10/17 07:53:48;;;;;;;61.15;56.92;;;9.00;99.90;;;;;;6277229;22;20010;-91
2023/10/17 07:56:20;;;;;;;80.75;75.50;;;9.70;99.90;;;;;;6276441;22;20019;-91
2023/10/17 07:59:04;;;;;;;55.20;51.53;;;9.40;99.90;;;;;;6276112;22;20093;-90
2023/10/17 08:01:57;;;;;;;56.95;52.85;;;8.90;99.90;;;;;;6276863;22;20018;-90
2023/10/17 08:04:24;;;;;;;46.63;43.40;;;9.10;99.90;;;;;;6300948;22;20029;-90
2023/10/17 08:06:50;;;;;;;52.00;48.53;;;9.20;99.90;;;;;;6277256;22;20034;-92
2023/10/17 08:11:52;;;;;;;54.47;50.88;;;9.30;99.90;;;;;;6301797;22;20047;-90
2023/10/17 08:14:44;;;;;;;57.28;53.15;;;9.40;99.90;;;;;;6277708;22;19996;-90
2023/10/17 08:17:14;;;;;;;61.63;57.63;;;9.50;99.90;;;;;;6277215;22;20014;-91
2023/10/17 08:22:43;;;;;;;58.60;54.38;;;10.60;99.90;;;;;;6304217;22;20023;-90
2023/10/17 08:25:14;;;;;;;59.00;55.20;;;10.70;99.90;;;;;;6303991;22;20015;-89
2023/10/17 08:30:23;;;;;;;49.03;45.13;;;10.10;99.90;;;;;;6304780;22;20047;-90
2023/10/17 08:33:09;;;;;;;66.90;62.65;;;10.00;99.90;;;;;;6278435;22;20015;-90
2023/10/17 08:35:39;;;;;;;44.17;40.92;;;10.90;99.90;;;;;;6303837;22;20015;-91
2023/10/17 08:38:10;;;;;;;39.50;36.25;;;10.10;99.90;;;;;;6277406;22;20019;-91
2023/10/17 08:43:10;;;;;;;36.00;33.20;;;10.20;99.90;;;;;;6303925;22;20022;-89
2023/10/17 08:45:38;;;;;;;35.65;33.05;;;10.50;99.90;;;;;;6277607;22;20009;-91
2023/10/17 08:48:09;;;;;;;32.10;29.48;;;11.20;99.90;;;;;;6277859;22;20065;-90
2023/10/17 08:50:39;;;;;;;35.83;33.17;;;10.20;99.90;;;;;;6278098;22;20053;-90
2023/10/17 08:53:30;;;;;;;37.72;35.05;;;11.20;99.90;;;;;;6278534;22;20023;-90
2023/10/17 08:55:56;;;;;;;33.75;31.45;;;10.90;99.90;;;;;;6279207;22;20022;-89
2023/10/17 08:58:32;;;;;;;44.08;41.25;;;10.20;99.90;;;;;;6279443;22;20049;-91
2023/10/17 09:01:10;;;;;;;42.28;39.20;;;9.80;99.90;;;;;;6304208;22;20015;-90
2023/10/17 09:03:40;;;;;;;40.22;37.50;;;9.80;99.90;;;;;;6278792;22;20011;-90
2023/10/17 09:06:28;;;;;;;48.35;45.42;;;10.60;99.90;;;;;;6279394;22;20019;-90
2023/10/17 09:09:17;;;;;;;47.50;44.70;;;9.60;99.90;;;;;;6304062;22;20043;-90
2023/10/17 09:12:01;;;;;;;51.92;48.65;;;9.70;99.90;;;;;;6303383;22;20019;-90
2023/10/17 09:14:35;;;;;;;52.60;49.15;;;10.10;99.90;;;;;;6278652;22;20065;-91
2023/10/17 09:17:13;;;;;;;51.67;48.55;;;9.60;99.90;;;;;;6279081;22;20026;-89
2023/10/17 09:19:46;;;;;;;58.85;55.15;;;9.60;99.90;;;;;;6278666;22;20022;-91
2023/10/17 09:22:16;;;;;;;61.25;57.67;;;9.60;99.90;;;;;;6278246;22;20011;-91
2023/10/17 09:24:49;;;;;;;57.95;53.97;;;10.70;99.90;;;;;;6277097;22;20016;-90
2023/10/17 09:27:18;;;;;;;61.72;57.65;;;10.40;99.90;;;;;;6276468;22;20035;-89
2023/10/17 09:29:49;;;;;;;57.88;54.05;;;9.70;99.90;;;;;;6251401;22;20102;-91
2023/10/17 09:32:39;;;;;;;36.15;33.85;;;9.30;99.90;;;;;;6275496;22;20030;-90
2023/10/17 09:35:13;;;;;;;56.03;52.38;;;9.70;99.90;;;;;;6275249;22;20019;-90
2023/10/17 09:37:50;;;;;;;54.03;50.60;;;9.70;99.90;;;;;;6275315;22;20046;-90
2023/10/17 09:42:53;;;;;;;61.35;57.53;;;9.80;99.90;;;;;;6280788;22;20015;-91
2023/10/17 09:45:20;;;;;;;50.08;47.00;;;10.70;99.90;;;;;;6277877;22;20007;-90
2023/10/17 09:47:52;;;;;;;65.40;61.17;;;9.20;99.90;;;;;;6302770;22;20031;-89
2023/10/17 09:50:20;;;;;;;62.65;58.70;;;9.80;99.90;;;;;;6278626;22;20316;-89
2023/10/17 09:52:51;;;;;;;57.90;54.20;;;9.90;99.90;;;;;;6277153;22;20011;-88
2023/10/17 09:55:24;;;;;;;48.83;45.78;;;10.20;99.90;;;;;;6278034;22;20015;-89
2023/10/17 09:57:59;;;;;;;63.53;59.55;;;10.10;99.90;;;;;;6278184;22;20000;-90
2023/10/17 10:00:27;;;;;;;62.00;58.03;;;10.50;99.90;;;;;;6279326;22;20019;-91
2023/10/17 10:02:55;;;;;;;75.72;71.40;;;9.90;99.90;;;;;;6279887;22;20012;-91
2023/10/17 10:05:25;;;;;;;62.35;58.63;;;10.00;99.90;;;;;;6279103;22;20433;-91
2023/10/17 10:07:55;;;;;;;60.10;56.42;;;10.00;99.90;;;;;;6279416;22;20266;-91
2023/10/17 10:10:44;;;;;;;78.43;73.93;;;10.00;99.90;;;;;;6279148;22;20092;-91
2023/10/17 10:13:13;;;;;;;85.80;81.13;;;10.10;99.90;;;;;;6279647;22;20027;-91
2023/10/17 10:15:52;;;;;;;75.35;71.07;;;10.10;99.90;;;;;;6278708;22;20003;-91
2023/10/17 10:18:35;;;;;;;63.33;59.42;;;10.10;99.90;;;;;;6281475;22;20016;-91
2023/10/17 10:21:12;;;;;;;80.15;75.60;;;10.20;99.90;;;;;;6279741;22;20043;-91
2023/10/17 10:23:43;;;;;;;78.97;74.28;;;10.20;99.90;;;;;;6304730;22;20019;-90
2023/10/17 10:26:11;;;;;;;80.60;76.07;;;10.30;99.90;;;;;;6279864;22;20015;-90
2023/10/17 10:28:44;;;;;;;86.03;81.28;;;10.00;99.90;;;;;;6279361;22;20072;-89
2023/10/17 10:31:22;;;;;;;74.23;70.10;;;10.40;99.90;;;;;;6305092;22;20014;-90
2023/10/17 10:33:52;;;;;;;49.40;46.08;;;11.10;99.90;;;;;;6279252;22;20248;-90
2023/10/17 10:36:18;;;;;;;63.08;59.22;;;10.40;99.90;;;;;;6247910;22;20015;-89
2023/10/17 10:38:45;;;;;;;61.03;57.35;;;10.50;99.90;;;;;;6273786;22;20019;-90
2023/10/17 10:41:13;;;;;;;77.63;72.93;;;10.60;99.90;;;;;;6274552;22;20078;-91
2023/10/17 10:43:43;;;;;;;48.70;45.05;;;10.60;99.90;;;;;;6274498;22;19999;-92
2023/10/17 10:46:09;;;;;;;40.35;38.03;;;11.30;99.90;;;;;;6273819;22;20008;-89
2023/10/17 10:48:35;;;;;;;48.88;45.78;;;10.60;99.90;;;;;;6274326;22;20119;-91
2023/10/17 10:51:02;;;;;;;51.03;47.97;;;10.30;99.90;;;;;;6274166;22;20039;-90
2023/10/17 10:53:35;;;;;;;47.28;44.10;;;10.90;99.90;;;;;;6274290;22;20016;-91
2023/10/17 10:56:09;;;;;;;61.13;57.47;;;11.70;99.90;;;;;;6274506;22;20015;-91
2023/10/17 10:58:53;;;;;;;54.95;51.75;;;10.90;99.90;;;;;;6274310;22;20103;-90
2023/10/17 11:01:20;;;;;;;49.95;46.72;;;10.90;99.90;;;;;;6274215;22;20012;-92
2023/10/17 11:03:48;;;;;;;41.70;38.95;;;11.00;99.90;;;;;;6274049;22;20012;-91
2023/10/17 11:06:19;;;;;;;43.25;40.55;;;11.00;99.90;;;;;;6224047;22;20016;-92
2023/10/17 11:08:46;;;;;;;32.67;30.73;;;10.50;99.90;;;;;;6273938;22;20258;-90
2023/10/17 11:11:14;;;;;;;41.17;38.35;;;11.10;99.90;;;;;;6274254;22;20063;-93
2023/10/17 11:13:47;;;;;;;51.95;48.90;;;11.10;99.90;;;;;;6249227;22;20044;-91
2023/10/17 11:16:17;;;;;;;;;;;11.40;99.90;;;;;;6274744;22;20011;-91
2023/10/17 11:18:43;;;;;;;39.55;36.80;;;10.70;99.90;;;;;;6273561;22;19906;-91
2023/10/17 11:21:10;;;;;;;34.55;32.30;;;11.20;99.90;;;;;;6274156;22;20019;-91
2023/10/17 11:24:00;;;;;;;33.17;31.05;;;11.20;99.90;;;;;;6274048;22;20029;-91
2023/10/17 11:26:29;;;;;;;42.25;39.72;;;11.30;99.90;;;;;;6273423;22;19999;-91
2023/10/17 11:28:57;;;;;;;26.33;24.48;;;11.40;99.90;;;;;;6248333;22;20004;-91
2023/10/17 11:31:24;;;;;;;27.40;25.25;;;11.00;99.90;;;;;;6274052;22;20060;-91
2023/10/17 11:34:13;;;;;;;34.70;32.55;;;10.80;99.90;;;;;;6274098;22;20063;-92
2023/10/17 11:37:02;;;;;;;31.52;29.13;;;11.40;99.90;;;;;;6273521;22;20183;-90
2023/10/17 11:39:41;;;;;;;29.73;27.63;;;11.40;99.90;;;;;;6273981;22;20020;-92
2023/10/17 11:42:07;;;;;;;28.45;26.67;;;11.40;99.90;;;;;;6274377;22;20012;-92
2023/10/17 11:44:42;;;;;;;14.93;13.88;;;11.70;99.90;;;;;;6273865;22;20016;-90
2023/10/17 11:47:22;;;;;;;25.25;23.58;;;11.40;99.90;;;;;;6249259;22;20023;-91
2023/10/17 11:49:49;;;;;;;41.88;39.33;;;12.10;99.90;;;;;;6273696;22;20011;-91
2023/10/17 11:52:15;;;;;;;25.15;23.33;;;11.50;99.90;;;;;;6273826;22;20055;-91
2023/10/17 11:55:00;;;;;;;19.73;18.23;;;12.20;99.90;;;;;;6273465;22;20041;-92
2023/10/17 11:57:31;;;;;;;14.27;13.05;;;11.50;99.90;;;;;;6273834;22;20026;-91
2023/10/17 12:02:43;;;;;;;25.75;24.00;;;11.60;99.90;;;;;;6299139;22;20004;-90
2023/10/17 12:05:18;;;;;;;22.13;20.50;;;12.50;99.90;;;;;;6248287;22;20012;-91
2023/10/17 12:07:53;;;;;;;33.67;31.40;;;11.70;99.90;;;;;;6250983;22;20019;-90
2023/10/17 12:10:21;;;;;;;28.55;26.67;;;11.70;99.90;;;;;;6273645;22;20023;-89
2023/10/17 12:12:47;;;;;;;22.27;20.80;;;11.70;99.90;;;;;;6248749;22;20023;-91
2023/10/17 12:15:13;;;;;;;20.45;18.85;;;11.80;99.90;;;;;;6272834;22;20011;-89
2023/10/17 12:17:40;;;;;;;40.05;37.33;;;11.80;99.90;;;;;;6273621;22;20004;-90
2023/10/17 12:20:13;;;;;;;32.95;31.05;;;11.80;99.90;;;;;;6273894;22;20027;-91
2023/10/17 12:22:40;;;;;;;37.25;34.90;;;11.90;99.90;;;;;;6273332;22;19999;-91
2023/10/17 12:25:09;;;;;;;17.60;16.20;;;11.90;99.90;;;;;;6273423;22;20254;-92
2023/10/17 12:27:39;;;;;;;39.70;37.22;;;11.80;99.90;;;;;;6274053;22;20012;-91
2023/10/17 12:30:28;;;;;;;28.13;25.65;;;12.00;99.90;;;;;;6248729;22;20008;-89
2023/10/17 12:32:55;;;;;;;22.48;21.00;;;12.00;99.90;;;;;;6251695;22;20034;-90
2023/10/17 12:35:22;;;;;;;16.95;15.60;;;11.90;99.90;;;;;;6247934;22;20008;-90
2023/10/17 12:37:52;;;;;;;23.30;21.50;;;11.90;99.90;;;;;;6272647;22;20015;-89
2023/10/17 12:40:21;;;;;;;19.42;18.05;;;12.30;99.90;;;;;;6247824;22;20012;-92
2023/10/17 12:42:47;;;;;;;14.80;13.55;;;11.90;99.90;;;;;;6272786;22;20041;-90
2023/10/17 12:45:20;;;;;;;20.98;19.33;;;12.10;99.90;;;;;;6273589;22;20012;-91
2023/10/17 12:47:47;;;;;;;22.13;20.30;;;11.90;99.90;;;;;;6273132;22;20016;-91
2023/10/17 12:50:19;;;;;;;23.52;21.98;;;12.40;99.90;;;;;;6272895;22;20063;-91
2023/10/17 12:52:46;;;;;;;13.85;12.68;;;12.00;99.90;;;;;;6273295;22;20015;-89
2023/10/17 12:55:12;;;;;;;10.70;9.18;;;12.10;99.90;;;;;;6272767;22;20015;-92
2023/10/17 12:57:44;;;;;;;16.35;15.15;;;12.60;99.90;;;;;;6297806;22;20035;-92
2023/10/17 13:00:11;;;;;;;10.38;9.40;;;12.90;99.90;;;;;;6274790;22;20016;-90
2023/10/17 13:02:40;;;;;;;26.92;25.30;;;12.00;99.90;;;;;;6275020;22;20262;-91
2023/10/17 13:05:11;;;;;;;15.30;14.10;;;11.70;99.90;;;;;;6275277;22;20012;-91
2023/10/17 13:07:40;;;;;;;25.42;23.65;;;11.70;99.90;;;;;;6275532;22;20012;-93
2023/10/17 13:10:08;;;;;;;18.48;17.08;;;12.10;99.90;;;;;;6249989;22;20090;-91
2023/10/17 13:12:35;;;;;;;14.00;12.05;;;12.20;99.90;;;;;;6249704;22;20023;-90
2023/10/17 13:15:01;;;;;;;14.52;13.45;;;12.30;99.90;;;;;;6274880;22;20015;-89
2023/10/17 13:17:28;;;;;;;21.08;19.58;;;12.30;99.90;;;;;;6274546;22;20067;-90
2023/10/17 13:19:55;;;;;;;17.20;15.98;;;12.90;99.90;;;;;;6274854;22;20012;-92
2023/10/17 13:22:24;;;;;;;26.13;24.48;;;12.30;99.90;;;;;;6275172;22;20016;-90
2023/10/17 13:24:50;;;;;;;17.33;16.17;;;11.80;99.90;;;;;;6274606;22;20042;-91
2023/10/17 13:27:16;;;;;;;15.32;14.10;;;12.30;99.90;;;;;;6274634;22;20035;-91
2023/10/17 13:29:43;;;;;;;21.58;20.08;;;12.20;99.90;;;;;;6274392;22;20016;-92
2023/10/17 13:32:09;;;;;;;27.25;25.55;;;12.30;99.90;;;;;;6274835;22;20004;-91
2023/10/17 13:34:38;;;;;;;12.20;11.30;;;12.30;99.90;;;;;;6274425;22;20010;-91
2023/10/17 13:37:04;;;;;;;6.30;4.72;;;12.30;99.90;;;;;;6274476;22;20020;-88
2023/10/17 13:39:36;;;;;;;13.68;12.48;;;12.30;99.90;;;;;;6274514;22;20011;-90
2023/10/17 13:42:03;;;;;;;10.73;9.95;;;12.30;99.90;;;;;;6274720;22;20011;-91
2023/10/17 13:44:29;;;;;;;22.80;21.48;;;12.30;99.90;;;;;;6274232;22;20095;-90
2023/10/17 13:46:56;;;;;;;20.45;18.75;;;12.30;99.90;;;;;;6274155;22;20063;-90
2023/10/17 13:49:23;;;;;;;14.60;13.50;;;12.30;99.90;;;;;;6274173;22;20023;-91
2023/10/17 13:51:53;;;;;;;18.63;16.63;;;12.40;99.90;;;;;;6274475;22;19996;-90
2023/10/17 13:54:19;;;;;;;25.42;23.73;;;12.40;99.90;;;;;;6249734;22;20022;-90
2023/10/17 13:56:45;;;;;;;17.08;15.85;;;12.40;99.90;;;;;;6274604;22;20003;-90
2023/10/17 13:59:13;;;;;;;11.45;10.40;;;12.40;99.90;;;;;;6274152;22;20012;-91
2023/10/17 14:01:42;;;;;;;18.88;17.67;;;13.00;99.90;;;;;;6274671;22;20011;-90
2023/10/17 14:04:11;;;;;;;9.82;8.60;;;12.30;99.90;;;;;;6273478;22;20004;-90
2023/10/17 14:06:39;;;;;;;18.88;17.42;;;12.40;99.90;;;;;;6273959;22;20254;-89
2023/10/17 14:09:15;;;;;;;25.40;23.58;;;12.70;99.90;;;;;;6274416;22;20011;-89
2023/10/17 14:11:46;;;;;;;15.68;14.13;;;12.40;99.90;;;;;;6273517;22;20019;-91
2023/10/17 14:14:13;;;;;;;15.57;14.48;;;12.50;99.90;;;;;;6274413;22;20039;-91
2023/10/17 14:16:42;;;;;;;19.73;18.50;;;12.40;99.90;;;;;;6273884;22;20039;-91
2023/10/17 14:19:15;;;;;;;20.42;19.17;;;12.40;99.90;;;;;;6273322;22;20023;-91
2023/10/17 14:21:47;;;;;;;5.97;4.78;;;12.40;99.90;;;;;;6273085;22;20080;-89
2023/10/17 14:26:00;;;;;;;17.40;16.10;;;12.40;99.90;;;;;;6273510;22;20035;-91
2023/10/17 14:27:12;;;;;;;14.15;13.02;;;12.40;99.90;;;;;;6278893;22;20046;-90
2023/10/17 14:29:42;;;;;;;20.13;18.80;;;12.30;99.90;;;;;;6272899;22;20369;-89
2023/10/17 14:32:09;;;;;;;17.45;16.10;;;12.30;99.90;;;;;;6273568;22;20015;-89
2023/10/17 14:34:37;;;;;;;16.45;15.15;;;12.30;99.90;;;;;;6248305;22;20065;-90
2023/10/17 14:37:07;;;;;;;10.10;9.40;;;12.20;99.90;;;;;;6248385;22;20182;-89
2023/10/17 14:39:33;;;;;;;11.88;10.95;;;12.20;99.90;;;;;;6273356;22;20020;-91
2023/10/17 14:41:59;;;;;;;8.32;7.60;;;12.60;99.90;;;;;;6273577;22;20047;-89
2023/10/17 14:44:29;;;;;;;13.25;12.18;;;12.40;99.90;;;;;;6273743;22;20012;-88
2023/10/17 14:46:57;;;;;;;15.98;14.73;;;12.10;99.90;;;;;;6273094;22;20012;-90
2023/10/17 14:49:24;;;;;;;14.40;13.27;;;12.70;99.90;;;;;;6273623;22;20004;-91
2023/10/17 14:51:50;;;;;;;17.00;15.95;;;12.10;99.90;;;;;;6273893;22;20034;-91
2023/10/17 14:54:16;;;;;;;8.15;6.43;;;12.50;99.90;;;;;;6273467;22;20071;-91
2023/10/17 14:56:45;;;;;;;17.50;16.40;;;12.80;99.90;;;;;;6273343;22;19996;-89
2023/10/17 14:59:11;;;;;;;17.25;16.15;;;12.60;99.90;;;;;;6273855;22;20035;-90
2023/10/17 15:01:37;;;;;;;11.15;10.32;;;12.80;99.90;;;;;;6272316;22;20059;-90
2023/10/17 15:04:23;;;;;;;27.27;25.35;;;12.70;99.90;;;;;;6273731;22;20023;-91
2023/10/17 15:06:53;;;;;;;17.90;16.70;;;11.90;99.90;;;;;;6274018;22;20042;-91
2023/10/17 15:09:21;;;;;;;18.77;17.63;;;11.90;99.90;;;;;;6224189;22;20196;-90
2023/10/17 15:11:51;;;;;;;22.42;21.10;;;11.90;99.90;;;;;;6249108;22;20022;-89
2023/10/17 15:14:17;;;;;;;15.02;13.95;;;12.30;99.90;;;;;;6273558;22;20011;-91
2023/10/17 15:16:43;;;;;;;24.25;22.77;;;12.40;99.90;;;;;;6274210;22;20007;-89
2023/10/17 15:19:09;;;;;;;17.50;16.38;;;12.50;99.90;;;;;;6273164;22;20042;-90